sensor_id;sensor_type;location;lat;lon;timestamp;temperature;humidity
76537;DHT22;65381;51.254;15.592;2023-02-01T00:01:13;3.00;88.40
76537;DHT22;65381;51.254;15.592;2023-02-01T00:03:41;3.00;88.80
76537;DHT22;65381;51.254;15.592;2023-02-01T00:06:09;3.10;88.90
76537;DHT22;65381;51.254;15.592;2023-02-01T00:08:38;3.10;88.90
76537;DHT22;65381;51.254;15.592;2023-02-01T00:11:08;3.20;88.90
76537;DHT22;65381;51.254;15.592;2023-02-01T00:13:38;3.30;88.90
76537;DHT22;65381;51.254;15.592;2023-02-01T00:16:14;3.30;88.90
76537;DHT22;65381;51.254;15.592;2023-02-01T00:18:47;3.40;88.80
76537;DHT22;65381;51.254;15.592;2023-02-01T00:21:17;3.50;89.00
76537;DHT22;65381;51.254;15.592;2023-02-01T00:23:46;3.50;89.10
76537;DHT22;65381;51.254;15.592;2023-02-01T00:26:17;3.60;89.00
76537;DHT22;65381;51.254;15.592;2023-02-01T00:28:45;3.80;88.90
76537;DHT22;65381;51.254;15.592;2023-02-01T00:31:14;3.90;88.90
76537;DHT22;65381;51.254;15.592;2023-02-01T00:33:42;3.90;88.80
76537;DHT22;65381;51.254;15.592;2023-02-01T00:36:11;4.00;88.70
76537;DHT22;65381;51.254;15.592;2023-02-01T00:38:40;4.00;88.70
76537;DHT22;65381;51.254;15.592;2023-02-01T00:41:11;4.00;88.70
76537;DHT22;65381;51.254;15.592;2023-02-01T00:43:40;4.00;88.70
76537;DHT22;65381;51.254;15.592;2023-02-01T00:46:08;4.10;88.60
76537;DHT22;65381;51.254;15.592;2023-02-01T00:48:37;4.10;88.50
76537;DHT22;65381;51.254;15.592;2023-02-01T00:51:07;4.10;88.40
76537;DHT22;65381;51.254;15.592;2023-02-01T00:53:36;4.20;88.30
76537;DHT22;65381;51.254;15.592;2023-02-01T00:56:04;4.20;88.30
76537;DHT22;65381;51.254;15.592;2023-02-01T00:58:33;4.20;88.20
76537;DHT22;65381;51.254;15.592;2023-02-01T01:03:47;4.30;88.00
76537;DHT22;65381;51.254;15.592;2023-02-01T01:06:17;4.30;87.80
76537;DHT22;65381;51.254;15.592;2023-02-01T01:08:45;4.40;87.80
76537;DHT22;65381;51.254;15.592;2023-02-01T01:11:19;4.30;87.60
76537;DHT22;65381;51.254;15.592;2023-02-01T01:13:49;4.30;87.40
76537;DHT22;65381;51.254;15.592;2023-02-01T01:16:17;4.20;87.20
76537;DHT22;65381;51.254;15.592;2023-02-01T01:18:46;4.10;87.30
76537;DHT22;65381;51.254;15.592;2023-02-01T01:21:15;4.00;87.40
76537;DHT22;65381;51.254;15.592;2023-02-01T01:23:44;3.90;87.30
76537;DHT22;65381;51.254;15.592;2023-02-01T01:26:16;3.90;87.50
76537;DHT22;65381;51.254;15.592;2023-02-01T01:28:45;3.90;87.50
76537;DHT22;65381;51.254;15.592;2023-02-01T01:31:15;3.90;87.60
76537;DHT22;65381;51.254;15.592;2023-02-01T01:33:47;3.90;87.60
76537;DHT22;65381;51.254;15.592;2023-02-01T01:36:15;3.90;87.70
76537;DHT22;65381;51.254;15.592;2023-02-01T01:38:44;4.00;87.50
76537;DHT22;65381;51.254;15.592;2023-02-01T01:41:15;4.00;87.40
76537;DHT22;65381;51.254;15.592;2023-02-01T01:43:53;4.10;87.30
76537;DHT22;65381;51.254;15.592;2023-02-01T01:46:24;4.10;87.20
76537;DHT22;65381;51.254;15.592;2023-02-01T01:49:07;4.10;87.20
76537;DHT22;65381;51.254;15.592;2023-02-01T01:51:57;4.10;87.00
76537;DHT22;65381;51.254;15.592;2023-02-01T01:54:48;4.10;87.00
76537;DHT22;65381;51.254;15.592;2023-02-01T01:57:23;4.10;86.90
76537;DHT22;65381;51.254;15.592;2023-02-01T02:00:03;4.10;87.00
76537;DHT22;65381;51.254;15.592;2023-02-01T02:02:41;4.10;86.80
76537;DHT22;65381;51.254;15.592;2023-02-01T02:05:11;4.10;86.80
76537;DHT22;65381;51.254;15.592;2023-02-01T02:07:43;4.10;86.80
76537;DHT22;65381;51.254;15.592;2023-02-01T02:10:14;4.20;86.80
76537;DHT22;65381;51.254;15.592;2023-02-01T02:12:44;4.20;86.70
76537;DHT22;65381;51.254;15.592;2023-02-01T02:15:16;4.30;86.60
76537;DHT22;65381;51.254;15.592;2023-02-01T02:18:23;4.30;86.50
76537;DHT22;65381;51.254;15.592;2023-02-01T02:23:56;4.30;86.50
76537;DHT22;65381;51.254;15.592;2023-02-01T02:29:49;4.30;86.40
76537;DHT22;65381;51.254;15.592;2023-02-01T02:32:33;4.30;86.40
76537;DHT22;65381;51.254;15.592;2023-02-01T02:42:48;4.30;86.30
76537;DHT22;65381;51.254;15.592;2023-02-01T02:48:59;4.30;86.30
76537;DHT22;65381;51.254;15.592;2023-02-01T02:51:34;4.30;86.20
76537;DHT22;65381;51.254;15.592;2023-02-01T02:54:28;4.30;86.10
76537;DHT22;65381;51.254;15.592;2023-02-01T03:00:12;4.20;86.00
76537;DHT22;65381;51.254;15.592;2023-02-01T03:03:00;4.20;86.00
76537;DHT22;65381;51.254;15.592;2023-02-01T03:05:49;4.20;85.90
76537;DHT22;65381;51.254;15.592;2023-02-01T03:08:30;4.20;85.80
76537;DHT22;65381;51.254;15.592;2023-02-01T03:29:49;4.20;85.20
76537;DHT22;65381;51.254;15.592;2023-02-01T03:32:19;4.30;85.30
76537;DHT22;65381;51.254;15.592;2023-02-01T03:34:47;4.30;85.30
76537;DHT22;65381;51.254;15.592;2023-02-01T03:37:24;4.30;85.30
76537;DHT22;65381;51.254;15.592;2023-02-01T03:40:06;4.30;85.20
76537;DHT22;65381;51.254;15.592;2023-02-01T03:42:42;4.30;85.20
76537;DHT22;65381;51.254;15.592;2023-02-01T03:45:24;4.30;85.10
76537;DHT22;65381;51.254;15.592;2023-02-01T03:47:56;4.30;85.00
76537;DHT22;65381;51.254;15.592;2023-02-01T03:50:30;4.30;84.90
76537;DHT22;65381;51.254;15.592;2023-02-01T03:53:03;4.30;84.70
76537;DHT22;65381;51.254;15.592;2023-02-01T03:55:32;4.30;84.60
76537;DHT22;65381;51.254;15.592;2023-02-01T03:58:09;4.30;84.60
76537;DHT22;65381;51.254;15.592;2023-02-01T04:00:39;4.30;84.60
76537;DHT22;65381;51.254;15.592;2023-02-01T04:03:07;4.30;84.60
76537;DHT22;65381;51.254;15.592;2023-02-01T04:05:35;4.30;84.30
76537;DHT22;65381;51.254;15.592;2023-02-01T04:08:07;4.20;84.20
76537;DHT22;65381;51.254;15.592;2023-02-01T04:10:35;4.20;84.30
76537;DHT22;65381;51.254;15.592;2023-02-01T04:13:03;4.20;84.40
76537;DHT22;65381;51.254;15.592;2023-02-01T04:15:30;4.20;84.30
76537;DHT22;65381;51.254;15.592;2023-02-01T04:17:58;4.20;84.30
76537;DHT22;65381;51.254;15.592;2023-02-01T04:20:26;4.30;84.20
76537;DHT22;65381;51.254;15.592;2023-02-01T04:22:54;4.30;84.10
76537;DHT22;65381;51.254;15.592;2023-02-01T04:25:22;4.30;84.10
76537;DHT22;65381;51.254;15.592;2023-02-01T04:27:51;4.40;83.90
76537;DHT22;65381;51.254;15.592;2023-02-01T04:30:19;4.40;83.90
76537;DHT22;65381;51.254;15.592;2023-02-01T04:32:47;4.40;83.80
76537;DHT22;65381;51.254;15.592;2023-02-01T04:35:15;4.40;83.70
76537;DHT22;65381;51.254;15.592;2023-02-01T04:37:45;4.50;83.80
76537;DHT22;65381;51.254;15.592;2023-02-01T04:40:13;4.50;83.90
76537;DHT22;65381;51.254;15.592;2023-02-01T04:42:41;4.50;83.90
76537;DHT22;65381;51.254;15.592;2023-02-01T04:45:09;4.50;83.60
76537;DHT22;65381;51.254;15.592;2023-02-01T04:47:37;4.50;83.30
76537;DHT22;65381;51.254;15.592;2023-02-01T04:50:05;4.50;83.20
76537;DHT22;65381;51.254;15.592;2023-02-01T04:52:35;4.50;83.30
76537;DHT22;65381;51.254;15.592;2023-02-01T04:55:03;4.50;83.30
76537;DHT22;65381;51.254;15.592;2023-02-01T04:57:31;4.50;83.30
76537;DHT22;65381;51.254;15.592;2023-02-01T04:59:59;4.50;83.30
76537;DHT22;65381;51.254;15.592;2023-02-01T05:02:27;4.50;83.30
76537;DHT22;65381;51.254;15.592;2023-02-01T05:04:55;4.50;83.30
76537;DHT22;65381;51.254;15.592;2023-02-01T05:07:23;4.50;83.30
76537;DHT22;65381;51.254;15.592;2023-02-01T05:09:51;4.50;83.20
76537;DHT22;65381;51.254;15.592;2023-02-01T05:12:19;4.50;82.90
76537;DHT22;65381;51.254;15.592;2023-02-01T05:15:06;4.50;83.00
76537;DHT22;65381;51.254;15.592;2023-02-01T05:17:34;4.50;82.80
76537;DHT22;65381;51.254;15.592;2023-02-01T05:20:01;4.50;82.70
76537;DHT22;65381;51.254;15.592;2023-02-01T05:22:29;4.50;82.70
76537;DHT22;65381;51.254;15.592;2023-02-01T05:24:57;4.40;82.60
76537;DHT22;65381;51.254;15.592;2023-02-01T05:27:25;4.50;82.50
76537;DHT22;65381;51.254;15.592;2023-02-01T05:29:53;4.50;82.60
76537;DHT22;65381;51.254;15.592;2023-02-01T05:32:21;4.50;82.70
76537;DHT22;65381;51.254;15.592;2023-02-01T05:34:50;4.40;82.50
76537;DHT22;65381;51.254;15.592;2023-02-01T05:37:18;4.40;82.60
76537;DHT22;65381;51.254;15.592;2023-02-01T05:39:45;4.40;82.40
76537;DHT22;65381;51.254;15.592;2023-02-01T05:42:13;4.40;82.50
76537;DHT22;65381;51.254;15.592;2023-02-01T05:44:41;4.40;82.50
76537;DHT22;65381;51.254;15.592;2023-02-01T05:47:10;4.40;82.40
76537;DHT22;65381;51.254;15.592;2023-02-01T05:49:38;4.40;82.50
76537;DHT22;65381;51.254;15.592;2023-02-01T05:52:06;4.40;82.40
76537;DHT22;65381;51.254;15.592;2023-02-01T05:54:33;4.40;82.50
76537;DHT22;65381;51.254;15.592;2023-02-01T05:57:01;4.40;82.40
76537;DHT22;65381;51.254;15.592;2023-02-01T05:59:29;4.40;82.50
76537;DHT22;65381;51.254;15.592;2023-02-01T06:01:57;4.40;82.40
76537;DHT22;65381;51.254;15.592;2023-02-01T06:04:25;4.40;82.50
76537;DHT22;65381;51.254;15.592;2023-02-01T06:06:53;4.40;82.50
76537;DHT22;65381;51.254;15.592;2023-02-01T06:09:21;4.40;82.50
76537;DHT22;65381;51.254;15.592;2023-02-01T06:11:49;4.40;82.50
76537;DHT22;65381;51.254;15.592;2023-02-01T06:14:17;4.40;82.40
76537;DHT22;65381;51.254;15.592;2023-02-01T06:16:45;4.30;82.30
76537;DHT22;65381;51.254;15.592;2023-02-01T06:19:14;4.30;82.40
76537;DHT22;65381;51.254;15.592;2023-02-01T06:21:42;4.30;82.50
76537;DHT22;65381;51.254;15.592;2023-02-01T06:24:09;4.30;82.50
76537;DHT22;65381;51.254;15.592;2023-02-01T06:26:38;4.30;82.40
76537;DHT22;65381;51.254;15.592;2023-02-01T06:29:09;4.30;82.40
76537;DHT22;65381;51.254;15.592;2023-02-01T06:31:38;4.30;82.30
76537;DHT22;65381;51.254;15.592;2023-02-01T06:34:07;4.30;82.40
76537;DHT22;65381;51.254;15.592;2023-02-01T06:36:35;4.30;82.50
76537;DHT22;65381;51.254;15.592;2023-02-01T06:39:03;4.30;82.50
76537;DHT22;65381;51.254;15.592;2023-02-01T06:41:31;4.20;82.50
76537;DHT22;65381;51.254;15.592;2023-02-01T06:44:01;4.20;82.50
76537;DHT22;65381;51.254;15.592;2023-02-01T06:46:30;4.10;82.70
76537;DHT22;65381;51.254;15.592;2023-02-01T06:48:57;4.10;82.90
76537;DHT22;65381;51.254;15.592;2023-02-01T06:51:27;4.10;83.10
76537;DHT22;65381;51.254;15.592;2023-02-01T06:53:56;4.00;83.20
76537;DHT22;65381;51.254;15.592;2023-02-01T06:56:24;4.10;83.20
76537;DHT22;65381;51.254;15.592;2023-02-01T06:58:53;4.10;83.30
76537;DHT22;65381;51.254;15.592;2023-02-01T07:01:21;4.10;83.40
76537;DHT22;65381;51.254;15.592;2023-02-01T07:03:50;4.10;83.30
76537;DHT22;65381;51.254;15.592;2023-02-01T07:06:21;4.20;83.20
76537;DHT22;65381;51.254;15.592;2023-02-01T07:08:49;4.20;83.10
76537;DHT22;65381;51.254;15.592;2023-02-01T07:11:18;4.20;83.10
76537;DHT22;65381;51.254;15.592;2023-02-01T07:13:46;4.20;83.10
76537;DHT22;65381;51.254;15.592;2023-02-01T07:16:17;4.20;83.10
76537;DHT22;65381;51.254;15.592;2023-02-01T07:18:45;4.20;83.00
76537;DHT22;65381;51.254;15.592;2023-02-01T07:21:13;4.20;83.10
76537;DHT22;65381;51.254;15.592;2023-02-01T07:23:41;4.10;83.10
76537;DHT22;65381;51.254;15.592;2023-02-01T07:26:11;4.20;83.20
76537;DHT22;65381;51.254;15.592;2023-02-01T07:28:43;4.10;83.20
76537;DHT22;65381;51.254;15.592;2023-02-01T07:31:14;4.10;83.30
76537;DHT22;65381;51.254;15.592;2023-02-01T07:33:43;4.20;83.30
76537;DHT22;65381;51.254;15.592;2023-02-01T07:36:18;4.20;83.10
76537;DHT22;65381;51.254;15.592;2023-02-01T07:38:46;4.20;83.10
76537;DHT22;65381;51.254;15.592;2023-02-01T07:41:17;4.20;83.20
76537;DHT22;65381;51.254;15.592;2023-02-01T07:43:45;4.20;83.10
76537;DHT22;65381;51.254;15.592;2023-02-01T07:46:13;4.20;83.20
76537;DHT22;65381;51.254;15.592;2023-02-01T07:48:42;4.10;83.10
76537;DHT22;65381;51.254;15.592;2023-02-01T07:51:16;4.00;83.20
76537;DHT22;65381;51.254;15.592;2023-02-01T07:53:44;4.00;83.30
76537;DHT22;65381;51.254;15.592;2023-02-01T07:56:17;3.90;83.40
76537;DHT22;65381;51.254;15.592;2023-02-01T07:58:51;3.90;83.60
76537;DHT22;65381;51.254;15.592;2023-02-01T08:01:22;3.90;83.70
76537;DHT22;65381;51.254;15.592;2023-02-01T08:03:57;3.90;83.80
76537;DHT22;65381;51.254;15.592;2023-02-01T08:06:28;3.90;83.90
76537;DHT22;65381;51.254;15.592;2023-02-01T08:08:57;3.90;83.90
76537;DHT22;65381;51.254;15.592;2023-02-01T08:11:26;3.90;83.90
76537;DHT22;65381;51.254;15.592;2023-02-01T08:13:55;3.80;83.90
76537;DHT22;65381;51.254;15.592;2023-02-01T08:16:23;3.70;83.90
76537;DHT22;65381;51.254;15.592;2023-02-01T08:18:52;3.60;84.00
76537;DHT22;65381;51.254;15.592;2023-02-01T08:21:27;3.60;84.00
76537;DHT22;65381;51.254;15.592;2023-02-01T08:24:05;3.50;84.30
76537;DHT22;65381;51.254;15.592;2023-02-01T08:26:34;3.50;84.40
76537;DHT22;65381;51.254;15.592;2023-02-01T08:29:04;3.50;84.50
76537;DHT22;65381;51.254;15.592;2023-02-01T08:31:33;3.50;84.70
76537;DHT22;65381;51.254;15.592;2023-02-01T08:34:02;3.40;84.70
76537;DHT22;65381;51.254;15.592;2023-02-01T08:36:37;3.30;84.80
76537;DHT22;65381;51.254;15.592;2023-02-01T08:39:05;3.30;84.90
76537;DHT22;65381;51.254;15.592;2023-02-01T08:41:37;3.30;85.00
76537;DHT22;65381;51.254;15.592;2023-02-01T08:44:05;3.40;85.00
76537;DHT22;65381;51.254;15.592;2023-02-01T08:46:33;3.50;85.10
76537;DHT22;65381;51.254;15.592;2023-02-01T08:49:01;3.50;85.10
76537;DHT22;65381;51.254;15.592;2023-02-01T08:51:29;3.50;85.10
76537;DHT22;65381;51.254;15.592;2023-02-01T08:53:57;3.50;85.20
76537;DHT22;65381;51.254;15.592;2023-02-01T08:56:27;3.50;85.20
76537;DHT22;65381;51.254;15.592;2023-02-01T08:58:55;3.50;85.10
76537;DHT22;65381;51.254;15.592;2023-02-01T09:01:23;3.50;85.30
76537;DHT22;65381;51.254;15.592;2023-02-01T09:03:51;3.50;85.40
76537;DHT22;65381;51.254;15.592;2023-02-01T09:06:19;3.50;85.40
76537;DHT22;65381;51.254;15.592;2023-02-01T09:08:46;3.50;85.40
76537;DHT22;65381;51.254;15.592;2023-02-01T09:11:17;3.40;85.40
76537;DHT22;65381;51.254;15.592;2023-02-01T09:13:46;3.30;85.50
76537;DHT22;65381;51.254;15.592;2023-02-01T09:16:14;3.30;85.50
76537;DHT22;65381;51.254;15.592;2023-02-01T09:18:43;3.30;85.30
76537;DHT22;65381;51.254;15.592;2023-02-01T09:21:31;3.30;85.50
76537;DHT22;65381;51.254;15.592;2023-02-01T09:23:59;3.20;85.80
76537;DHT22;65381;51.254;15.592;2023-02-01T09:26:27;3.30;85.90
76537;DHT22;65381;51.254;15.592;2023-02-01T09:29:00;3.30;85.90
76537;DHT22;65381;51.254;15.592;2023-02-01T09:31:29;3.30;86.00
76537;DHT22;65381;51.254;15.592;2023-02-01T09:33:57;3.30;86.00
76537;DHT22;65381;51.254;15.592;2023-02-01T09:36:24;3.30;86.10
76537;DHT22;65381;51.254;15.592;2023-02-01T09:38:52;3.50;86.30
76537;DHT22;65381;51.254;15.592;2023-02-01T09:41:48;3.50;86.30
76537;DHT22;65381;51.254;15.592;2023-02-01T09:47:22;3.70;86.40
76537;DHT22;65381;51.254;15.592;2023-02-01T09:52:41;3.90;86.50
76537;DHT22;65381;51.254;15.592;2023-02-01T09:56:02;4.10;86.50
76537;DHT22;65381;51.254;15.592;2023-02-01T09:58:08;4.20;86.10
76537;DHT22;65381;51.254;15.592;2023-02-01T10:00:41;4.20;85.90
76537;DHT22;65381;51.254;15.592;2023-02-01T10:03:13;4.20;85.90
76537;DHT22;65381;51.254;15.592;2023-02-01T10:20:03;3.60;86.10
76537;DHT22;65381;51.254;15.592;2023-02-01T10:28:16;3.60;86.60
76537;DHT22;65381;51.254;15.592;2023-02-01T10:30:46;3.60;86.60
76537;DHT22;65381;51.254;15.592;2023-02-01T10:33:27;3.60;86.50
76537;DHT22;65381;51.254;15.592;2023-02-01T10:39:12;3.60;86.40
76537;DHT22;65381;51.254;15.592;2023-02-01T10:41:42;3.50;86.40
76537;DHT22;65381;51.254;15.592;2023-02-01T10:44:15;3.50;86.60
76537;DHT22;65381;51.254;15.592;2023-02-01T10:46:44;3.50;86.60
76537;DHT22;65381;51.254;15.592;2023-02-01T10:49:26;3.40;86.70
76537;DHT22;65381;51.254;15.592;2023-02-01T10:54:49;3.30;86.80
76537;DHT22;65381;51.254;15.592;2023-02-01T10:57:25;3.30;86.80
76537;DHT22;65381;51.254;15.592;2023-02-01T10:59:53;3.40;87.00
76537;DHT22;65381;51.254;15.592;2023-02-01T11:02:34;3.50;87.10
76537;DHT22;65381;51.254;15.592;2023-02-01T11:05:08;3.50;87.10
76537;DHT22;65381;51.254;15.592;2023-02-01T11:07:39;3.50;87.10
76537;DHT22;65381;51.254;15.592;2023-02-01T11:10:41;3.50;87.00
76537;DHT22;65381;51.254;15.592;2023-02-01T11:13:18;3.50;87.10
76537;DHT22;65381;51.254;15.592;2023-02-01T11:15:47;3.50;87.00
76537;DHT22;65381;51.254;15.592;2023-02-01T11:18:36;3.50;87.10
76537;DHT22;65381;51.254;15.592;2023-02-01T11:21:05;3.50;87.20
76537;DHT22;65381;51.254;15.592;2023-02-01T11:23:40;3.50;87.30
76537;DHT22;65381;51.254;15.592;2023-02-01T11:28:43;3.50;87.50
76537;DHT22;65381;51.254;15.592;2023-02-01T11:31:13;3.50;87.70
76537;DHT22;65381;51.254;15.592;2023-02-01T11:33:52;3.60;87.60
76537;DHT22;65381;51.254;15.592;2023-02-01T11:36:27;3.60;87.60
76537;DHT22;65381;51.254;15.592;2023-02-01T11:42:05;3.60;87.70
76537;DHT22;65381;51.254;15.592;2023-02-01T11:44:37;3.70;87.80
76537;DHT22;65381;51.254;15.592;2023-02-01T11:47:38;3.70;88.00
76537;DHT22;65381;51.254;15.592;2023-02-01T11:50:26;3.90;88.10
76537;DHT22;65381;51.254;15.592;2023-02-01T11:55:49;4.10;87.80
76537;DHT22;65381;51.254;15.592;2023-02-01T12:02:02;4.10;87.80
76537;DHT22;65381;51.254;15.592;2023-02-01T12:10:18;4.20;87.80
76537;DHT22;65381;51.254;15.592;2023-02-01T12:21:49;4.10;87.70
76537;DHT22;65381;51.254;15.592;2023-02-01T12:24:28;4.10;87.80
76537;DHT22;65381;51.254;15.592;2023-02-01T12:33:32;4.20;88.40
76537;DHT22;65381;51.254;15.592;2023-02-01T12:39:06;4.40;88.20
76537;DHT22;65381;51.254;15.592;2023-02-01T12:42:03;4.40;87.90
76537;DHT22;65381;51.254;15.592;2023-02-01T12:47:51;4.50;88.20
76537;DHT22;65381;51.254;15.592;2023-02-01T12:52:58;4.60;87.80
76537;DHT22;65381;51.254;15.592;2023-02-01T12:55:41;4.50;87.70
76537;DHT22;65381;51.254;15.592;2023-02-01T13:00:52;4.50;88.00
76537;DHT22;65381;51.254;15.592;2023-02-01T13:03:36;4.50;88.00
76537;DHT22;65381;51.254;15.592;2023-02-01T13:06:10;4.50;87.80
76537;DHT22;65381;51.254;15.592;2023-02-01T13:09:04;4.50;87.70
76537;DHT22;65381;51.254;15.592;2023-02-01T13:11:41;4.50;87.70
76537;DHT22;65381;51.254;15.592;2023-02-01T13:17:02;4.50;87.80
76537;DHT22;65381;51.254;15.592;2023-02-01T13:24:56;4.60;87.60
76537;DHT22;65381;51.254;15.592;2023-02-01T13:27:29;4.60;87.50
76537;DHT22;65381;51.254;15.592;2023-02-01T13:30:22;4.60;87.50
76537;DHT22;65381;51.254;15.592;2023-02-01T13:43:46;4.70;87.60
76537;DHT22;65381;51.254;15.592;2023-02-01T13:46:17;4.70;87.60
76537;DHT22;65381;51.254;15.592;2023-02-01T13:48:57;4.70;87.50
76537;DHT22;65381;51.254;15.592;2023-02-01T13:51:50;4.70;87.60
76537;DHT22;65381;51.254;15.592;2023-02-01T13:54:31;4.70;87.80
76537;DHT22;65381;51.254;15.592;2023-02-01T13:57:02;4.90;88.00
76537;DHT22;65381;51.254;15.592;2023-02-01T14:05:12;5.10;88.30
76537;DHT22;65381;51.254;15.592;2023-02-01T14:08:11;5.30;87.50
76537;DHT22;65381;51.254;15.592;2023-02-01T14:23:55;4.60;87.00
76537;DHT22;65381;51.254;15.592;2023-02-01T14:26:27;4.50;86.70
76537;DHT22;65381;51.254;15.592;2023-02-01T14:39:54;3.20;87.00
76537;DHT22;65381;51.254;15.592;2023-02-01T14:42:39;3.10;87.20
76537;DHT22;65381;51.254;15.592;2023-02-01T14:50:41;3.00;87.30
76537;DHT22;65381;51.254;15.592;2023-02-01T14:55:48;3.00;87.60
76537;DHT22;65381;51.254;15.592;2023-02-01T14:58:42;3.00;87.70
76537;DHT22;65381;51.254;15.592;2023-02-01T15:01:30;3.10;87.80
76537;DHT22;65381;51.254;15.592;2023-02-01T15:14:29;3.10;87.70
76537;DHT22;65381;51.254;15.592;2023-02-01T15:16:57;3.10;87.80
76537;DHT22;65381;51.254;15.592;2023-02-01T15:19:29;3.10;87.90
76537;DHT22;65381;51.254;15.592;2023-02-01T15:21:59;3.10;87.80
76537;DHT22;65381;51.254;15.592;2023-02-01T15:24:29;3.10;87.90
76537;DHT22;65381;51.254;15.592;2023-02-01T15:27:04;3.10;88.00
76537;DHT22;65381;51.254;15.592;2023-02-01T15:29:32;3.20;88.00
76537;DHT22;65381;51.254;15.592;2023-02-01T15:32:01;3.30;88.00
76537;DHT22;65381;51.254;15.592;2023-02-01T15:34:47;3.30;87.90
76537;DHT22;65381;51.254;15.592;2023-02-01T15:37:16;3.30;87.90
76537;DHT22;65381;51.254;15.592;2023-02-01T15:42:55;3.20;87.80
76537;DHT22;65381;51.254;15.592;2023-02-01T15:45:26;3.10;87.60
76537;DHT22;65381;51.254;15.592;2023-02-01T15:47:56;3.00;87.60
76537;DHT22;65381;51.254;15.592;2023-02-01T15:50:25;2.90;87.80
76537;DHT22;65381;51.254;15.592;2023-02-01T15:52:54;2.90;88.00
76537;DHT22;65381;51.254;15.592;2023-02-01T15:55:38;2.90;88.20
76537;DHT22;65381;51.254;15.592;2023-02-01T15:58:17;2.90;88.30
76537;DHT22;65381;51.254;15.592;2023-02-01T16:00:54;2.90;88.30
76537;DHT22;65381;51.254;15.592;2023-02-01T16:06:00;3.00;88.40
76537;DHT22;65381;51.254;15.592;2023-02-01T16:08:31;3.00;88.50
76537;DHT22;65381;51.254;15.592;2023-02-01T16:13:36;3.10;88.50
76537;DHT22;65381;51.254;15.592;2023-02-01T16:16:06;3.10;88.60
76537;DHT22;65381;51.254;15.592;2023-02-01T16:18:40;3.30;88.70
76537;DHT22;65381;51.254;15.592;2023-02-01T16:21:08;3.30;88.80
76537;DHT22;65381;51.254;15.592;2023-02-01T16:23:37;3.50;88.80
76537;DHT22;65381;51.254;15.592;2023-02-01T16:26:05;3.60;88.70
76537;DHT22;65381;51.254;15.592;2023-02-01T16:28:34;3.60;88.70
76537;DHT22;65381;51.254;15.592;2023-02-01T16:31:12;3.70;88.70
76537;DHT22;65381;51.254;15.592;2023-02-01T16:33:49;3.80;88.60
76537;DHT22;65381;51.254;15.592;2023-02-01T16:36:18;3.90;88.60
76537;DHT22;65381;51.254;15.592;2023-02-01T16:38:47;3.90;88.60
76537;DHT22;65381;51.254;15.592;2023-02-01T16:41:18;4.00;88.40
76537;DHT22;65381;51.254;15.592;2023-02-01T16:43:52;4.00;88.30
76537;DHT22;65381;51.254;15.592;2023-02-01T16:46:25;4.10;88.20
76537;DHT22;65381;51.254;15.592;2023-02-01T16:48:57;4.10;88.10
76537;DHT22;65381;51.254;15.592;2023-02-01T16:51:29;4.10;88.00
76537;DHT22;65381;51.254;15.592;2023-02-01T16:54:01;4.10;88.00
76537;DHT22;65381;51.254;15.592;2023-02-01T16:56:33;4.10;88.00
76537;DHT22;65381;51.254;15.592;2023-02-01T16:59:01;4.00;87.90
76537;DHT22;65381;51.254;15.592;2023-02-01T17:01:29;4.00;88.00
76537;DHT22;65381;51.254;15.592;2023-02-01T17:03:58;3.90;87.90
76537;DHT22;65381;51.254;15.592;2023-02-01T17:06:28;3.90;87.90
76537;DHT22;65381;51.254;15.592;2023-02-01T17:08:59;3.90;87.90
76537;DHT22;65381;51.254;15.592;2023-02-01T17:11:31;3.90;88.00
76537;DHT22;65381;51.254;15.592;2023-02-01T17:16:41;3.80;88.00
76537;DHT22;65381;51.254;15.592;2023-02-01T17:19:16;3.70;88.00
76537;DHT22;65381;51.254;15.592;2023-02-01T17:21:49;3.70;88.20
76537;DHT22;65381;51.254;15.592;2023-02-01T17:24:23;3.70;88.30
76537;DHT22;65381;51.254;15.592;2023-02-01T17:26:55;3.70;88.30
76537;DHT22;65381;51.254;15.592;2023-02-01T17:29:24;3.60;88.30
76537;DHT22;65381;51.254;15.592;2023-02-01T17:31:54;3.60;88.20
76537;DHT22;65381;51.254;15.592;2023-02-01T17:34:26;3.50;88.30
76537;DHT22;65381;51.254;15.592;2023-02-01T17:36:54;3.50;88.40
76537;DHT22;65381;51.254;15.592;2023-02-01T17:39:24;3.50;88.50
76537;DHT22;65381;51.254;15.592;2023-02-01T17:42:11;3.40;88.60
76537;DHT22;65381;51.254;15.592;2023-02-01T17:44:41;3.30;88.60
76537;DHT22;65381;51.254;15.592;2023-02-01T17:47:13;3.30;88.70
76537;DHT22;65381;51.254;15.592;2023-02-01T17:49:43;3.30;88.70
76537;DHT22;65381;51.254;15.592;2023-02-01T17:52:16;3.30;88.80
76537;DHT22;65381;51.254;15.592;2023-02-01T17:54:46;3.30;88.80
76537;DHT22;65381;51.254;15.592;2023-02-01T17:57:17;3.40;88.70
76537;DHT22;65381;51.254;15.592;2023-02-01T17:59:47;3.30;88.70
76537;DHT22;65381;51.254;15.592;2023-02-01T18:02:23;3.40;88.80
76537;DHT22;65381;51.254;15.592;2023-02-01T18:04:53;3.40;88.80
76537;DHT22;65381;51.254;15.592;2023-02-01T18:07:21;3.40;88.80
76537;DHT22;65381;51.254;15.592;2023-02-01T18:09:50;3.40;88.80
76537;DHT22;65381;51.254;15.592;2023-02-01T18:12:23;3.40;88.80
76537;DHT22;65381;51.254;15.592;2023-02-01T18:14:54;3.40;88.90
76537;DHT22;65381;51.254;15.592;2023-02-01T18:17:23;3.50;88.90
76537;DHT22;65381;51.254;15.592;2023-02-01T18:19:52;3.50;88.80
76537;DHT22;65381;51.254;15.592;2023-02-01T18:22:23;3.50;88.80
76537;DHT22;65381;51.254;15.592;2023-02-01T18:24:53;3.50;88.70
76537;DHT22;65381;51.254;15.592;2023-02-01T18:27:22;3.50;88.70
76537;DHT22;65381;51.254;15.592;2023-02-01T18:29:54;3.50;88.70
76537;DHT22;65381;51.254;15.592;2023-02-01T18:32:24;3.50;88.70
76537;DHT22;65381;51.254;15.592;2023-02-01T18:34:53;3.50;88.70
76537;DHT22;65381;51.254;15.592;2023-02-01T18:37:23;3.50;88.70
76537;DHT22;65381;51.254;15.592;2023-02-01T18:39:54;3.50;88.70
76537;DHT22;65381;51.254;15.592;2023-02-01T18:42:23;3.50;88.70
76537;DHT22;65381;51.254;15.592;2023-02-01T18:44:52;3.50;88.70
76537;DHT22;65381;51.254;15.592;2023-02-01T18:47:21;3.50;88.70
76537;DHT22;65381;51.254;15.592;2023-02-01T18:49:54;3.50;88.70
76537;DHT22;65381;51.254;15.592;2023-02-01T18:52:23;3.50;88.60
76537;DHT22;65381;51.254;15.592;2023-02-01T18:54:53;3.50;88.60
76537;DHT22;65381;51.254;15.592;2023-02-01T18:57:27;3.50;88.60
76537;DHT22;65381;51.254;15.592;2023-02-01T18:59:58;3.50;88.60
76537;DHT22;65381;51.254;15.592;2023-02-01T19:02:28;3.50;88.50
76537;DHT22;65381;51.254;15.592;2023-02-01T19:04:58;3.60;88.60
76537;DHT22;65381;51.254;15.592;2023-02-01T19:07:33;3.50;88.50
76537;DHT22;65381;51.254;15.592;2023-02-01T19:10:05;3.60;88.50
76537;DHT22;65381;51.254;15.592;2023-02-01T19:12:35;3.60;88.40
76537;DHT22;65381;51.254;15.592;2023-02-01T19:15:10;3.50;88.30
76537;DHT22;65381;51.254;15.592;2023-02-01T19:17:45;3.60;88.30